sensor_id;sensor_type;location;lat;lon;timestamp;pressure;altitude;pressure_sealevel;temperature;humidity
2875;BME280;1445;52.600;13.328;2023-08-08T00:02:14;100283.50;;;14.15;100.00
2875;BME280;1445;52.600;13.328;2023-08-08T00:04:40;100273.25;;;14.07;100.00
2875;BME280;1445;52.600;13.328;2023-08-08T00:07:05;100281.94;;;14.05;100.00
2875;BME280;1445;52.600;13.328;2023-08-08T00:09:31;100272.97;;;14.00;100.00
2875;BME280;1445;52.600;13.328;2023-08-08T00:11:57;100300.56;;;13.96;100.00
2875;BME280;1445;52.600;13.328;2023-08-08T00:14:23;100311.63;;;13.96;100.00
2875;BME280;1445;52.600;13.328;2023-08-08T00:16:49;100300.91;;;13.95;100.00
2875;BME280;1445;52.600;13.328;2023-08-08T00:19:14;100296.03;;;13.92;100.00
2875;BME280;1445;52.600;13.328;2023-08-08T00:21:39;100286.75;;;13.88;100.00
2875;BME280;1445;52.600;13.328;2023-08-08T00:24:05;100303.25;;;13.84;100.00
2875;BME280;1445;52.600;13.328;2023-08-08T00:26:30;100318.91;;;13.80;100.00
2875;BME280;1445;52.600;13.328;2023-08-08T00:28:56;100299.38;;;13.76;100.00
2875;BME280;1445;52.600;13.328;2023-08-08T00:31:21;100300.03;;;13.73;100.00
2875;BME280;1445;52.600;13.328;2023-08-08T00:33:47;100300.50;;;13.75;100.00
2875;BME280;1445;52.600;13.328;2023-08-08T00:36:12;100306.03;;;13.75;100.00
2875;BME280;1445;52.600;13.328;2023-08-08T00:38:37;100308.22;;;13.70;100.00
2875;BME280;1445;52.600;13.328;2023-08-08T00:41:03;100319.44;;;13.73;100.00
2875;BME280;1445;52.600;13.328;2023-08-08T00:43:30;100296.47;;;13.73;100.00
2875;BME280;1445;52.600;13.328;2023-08-08T00:45:56;100295.47;;;13.77;100.00
2875;BME280;1445;52.600;13.328;2023-08-08T00:48:22;100313.91;;;13.73;100.00
2875;BME280;1445;52.600;13.328;2023-08-08T00:50:48;100298.59;;;13.67;100.00
2875;BME280;1445;52.600;13.328;2023-08-08T00:53:15;100299.78;;;13.57;100.00
2875;BME280;1445;52.600;13.328;2023-08-08T00:55:42;100315.59;;;13.57;100.00
2875;BME280;1445;52.600;13.328;2023-08-08T00:58:07;100301.44;;;13.58;100.00
2875;BME280;1445;52.600;13.328;2023-08-08T01:00:33;100309.59;;;13.55;100.00
2875;BME280;1445;52.600;13.328;2023-08-08T01:02:58;100310.41;;;13.47;100.00
2875;BME280;1445;52.600;13.328;2023-08-08T01:05:24;100305.84;;;13.51;100.00
2875;BME280;1445;52.600;13.328;2023-08-08T01:08:00;100309.59;;;13.55;100.00
2875;BME280;1445;52.600;13.328;2023-08-08T01:10:31;100303.41;;;13.49;100.00
2875;BME280;1445;52.600;13.328;2023-08-08T01:13:00;100303.72;;;13.48;100.00
2875;BME280;1445;52.600;13.328;2023-08-08T01:15:28;100309.47;;;13.43;100.00
2875;BME280;1445;52.600;13.328;2023-08-08T01:17:57;100302.75;;;13.44;100.00
2875;BME280;1445;52.600;13.328;2023-08-08T01:20:23;100299.03;;;13.40;100.00
2875;BME280;1445;52.600;13.328;2023-08-08T01:22:58;100302.97;;;13.39;100.00
2875;BME280;1445;52.600;13.328;2023-08-08T01:25:28;100291.22;;;13.42;100.00
2875;BME280;1445;52.600;13.328;2023-08-08T01:27:54;100311.59;;;13.37;100.00
2875;BME280;1445;52.600;13.328;2023-08-08T01:30:19;100299.03;;;13.40;100.00
2875;BME280;1445;52.600;13.328;2023-08-08T01:32:45;100314.50;;;13.41;100.00
2875;BME280;1445;52.600;13.328;2023-08-08T01:35:11;100289.72;;;13.44;100.00
2875;BME280;1445;52.600;13.328;2023-08-08T01:40:05;100283.88;;;13.46;100.00
2875;BME280;1445;52.600;13.328;2023-08-08T01:42:31;100288.25;;;13.47;100.00
2875;BME280;1445;52.600;13.328;2023-08-08T01:44:57;100286.31;;;13.47;100.00
2875;BME280;1445;52.600;13.328;2023-08-08T01:47:24;100277.69;;;13.49;100.00
2875;BME280;1445;52.600;13.328;2023-08-08T01:49:49;100286.78;;;13.49;100.00
2875;BME280;1445;52.600;13.328;2023-08-08T01:52:15;100277.34;;;13.50;100.00
2875;BME280;1445;52.600;13.328;2023-08-08T01:54:40;100266.41;;;13.54;100.00
2875;BME280;1445;52.600;13.328;2023-08-08T01:57:07;100276.22;;;13.51;100.00
2875;BME280;1445;52.600;13.328;2023-08-08T01:59:32;100248.84;;;13.50;100.00
2875;BME280;1445;52.600;13.328;2023-08-08T02:01:58;100262.03;;;13.53;100.00
2875;BME280;1445;52.600;13.328;2023-08-08T02:04:23;100276.22;;;13.51;100.00
2875;BME280;1445;52.600;13.328;2023-08-08T02:06:49;100274.91;;;13.49;100.00
2875;BME280;1445;52.600;13.328;2023-08-08T02:09:14;100260.56;;;13.47;100.00
2875;BME280;1445;52.600;13.328;2023-08-08T02:11:41;100273.63;;;13.46;100.00
2875;BME280;1445;52.600;13.328;2023-08-08T02:14:06;100254.56;;;13.45;100.00
2875;BME280;1445;52.600;13.328;2023-08-08T02:16:32;100274.75;;;13.45;100.00
2875;BME280;1445;52.600;13.328;2023-08-08T02:18:57;100267.25;;;13.46;100.00
2875;BME280;1445;52.600;13.328;2023-08-08T02:21:23;100265.16;;;13.43;100.00
2875;BME280;1445;52.600;13.328;2023-08-08T02:23:48;100254.88;;;13.43;100.00
2875;BME280;1445;52.600;13.328;2023-08-08T02:26:13;100242.19;;;13.42;100.00
2875;BME280;1445;52.600;13.328;2023-08-08T02:28:39;100260.28;;;13.40;100.00
2875;BME280;1445;52.600;13.328;2023-08-08T02:31:04;100249.41;;;13.34;100.00
2875;BME280;1445;52.600;13.328;2023-08-08T02:33:29;100250.06;;;13.31;100.00
2875;BME280;1445;52.600;13.328;2023-08-08T02:35:55;100261.97;;;13.23;100.00
2875;BME280;1445;52.600;13.328;2023-08-08T02:38:21;100272.56;;;13.12;100.00
2875;BME280;1445;52.600;13.328;2023-08-08T02:40:46;100274.84;;;13.10;100.00
2875;BME280;1445;52.600;13.328;2023-08-08T02:43:12;100267.72;;;13.09;100.00
2875;BME280;1445;52.600;13.328;2023-08-08T02:45:37;100260.38;;;13.05;100.00
2875;BME280;1445;52.600;13.328;2023-08-08T02:48:03;100258.59;;;13.00;100.00
2875;BME280;1445;52.600;13.328;2023-08-08T02:50:28;100267.25;;;12.99;100.00
2875;BME280;1445;52.600;13.328;2023-08-08T02:52:54;100266.56;;;13.02;100.00
2875;BME280;1445;52.600;13.328;2023-08-08T02:55:19;100266.41;;;12.98;100.00
2875;BME280;1445;52.600;13.328;2023-08-08T02:57:45;100274.09;;;12.93;100.00
2875;BME280;1445;52.600;13.328;2023-08-08T03:00:11;100275.69;;;12.94;100.00
2875;BME280;1445;52.600;13.328;2023-08-08T03:02:37;100286.47;;;12.86;100.00
2875;BME280;1445;52.600;13.328;2023-08-08T03:05:02;100269.72;;;12.83;100.00
2875;BME280;1445;52.600;13.328;2023-08-08T03:07:28;100271.16;;;12.80;100.00
2875;BME280;1445;52.600;13.328;2023-08-08T03:09:53;100274.13;;;12.75;100.00
2875;BME280;1445;52.600;13.328;2023-08-08T03:12:18;100279.00;;;12.78;100.00
2875;BME280;1445;52.600;13.328;2023-08-08T03:14:44;100275.09;;;12.79;100.00
2875;BME280;1445;52.600;13.328;2023-08-08T03:17:09;100280.13;;;12.77;100.00
2875;BME280;1445;52.600;13.328;2023-08-08T03:19:35;100286.00;;;12.76;100.00
2875;BME280;1445;52.600;13.328;2023-08-08T03:22:00;100290.72;;;12.75;100.00
2875;BME280;1445;52.600;13.328;2023-08-08T03:24:25;100293.94;;;12.77;100.00
2875;BME280;1445;52.600;13.328;2023-08-08T03:26:51;100301.44;;;12.85;100.00
2875;BME280;1445;52.600;13.328;2023-08-08T03:29:16;100307.47;;;12.79;100.00
2875;BME280;1445;52.600;13.328;2023-08-08T03:31:41;100291.34;;;12.81;100.00
2875;BME280;1445;52.600;13.328;2023-08-08T03:34:07;100288.72;;;12.84;100.00
2875;BME280;1445;52.600;13.328;2023-08-08T03:36:32;100299.16;;;12.87;100.00
2875;BME280;1445;52.600;13.328;2023-08-08T03:38:58;100296.88;;;12.81;100.00
2875;BME280;1445;52.600;13.328;2023-08-08T03:41:23;100298.19;;;12.83;100.00
2875;BME280;1445;52.600;13.328;2023-08-08T03:43:49;100299.78;;;12.84;100.00
2875;BME280;1445;52.600;13.328;2023-08-08T03:46:14;100299.31;;;12.82;100.00
2875;BME280;1445;52.600;13.328;2023-08-08T03:48:39;100308.09;;;12.84;100.00
2875;BME280;1445;52.600;13.328;2023-08-08T03:51:05;100310.06;;;12.84;100.00
2875;BME280;1445;52.600;13.328;2023-08-08T03:53:32;100309.41;;;12.78;100.00
2875;BME280;1445;52.600;13.328;2023-08-08T03:55:57;100315.91;;;12.82;100.00
2875;BME280;1445;52.600;13.328;2023-08-08T03:58:23;100307.28;;;12.84;100.00
2875;BME280;1445;52.600;13.328;2023-08-08T04:00:48;100325.53;;;12.85;100.00
2875;BME280;1445;52.600;13.328;2023-08-08T04:03:14;100328.91;;;12.90;100.00
2875;BME280;1445;52.600;13.328;2023-08-08T04:05:44;100309.25;;;12.92;100.00
2875;BME280;1445;52.600;13.328;2023-08-08T04:08:11;100318.19;;;12.89;100.00
2875;BME280;1445;52.600;13.328;2023-08-08T04:10:37;100316.88;;;12.86;100.00
2875;BME280;1445;52.600;13.328;2023-08-08T04:13:02;100310.06;;;12.84;100.00
2875;BME280;1445;52.600;13.328;2023-08-08T04:15:28;100315.59;;;12.93;100.00
2875;BME280;1445;52.600;13.328;2023-08-08T04:17:53;100309.41;;;12.87;100.00
2875;BME280;1445;52.600;13.328;2023-08-08T04:20:19;100311.69;;;12.85;100.00
2875;BME280;1445;52.600;13.328;2023-08-08T04:22:44;100305.47;;;12.88;100.00
2875;BME280;1445;52.600;13.328;2023-08-08T04:25:10;100317.38;;;12.88;100.00
2875;BME280;1445;52.600;13.328;2023-08-08T04:27:35;100306.31;;;12.88;100.00
2875;BME280;1445;52.600;13.328;2023-08-08T04:30:01;100332.84;;;12.89;100.00
2875;BME280;1445;52.600;13.328;2023-08-08T04:32:26;100317.53;;;12.92;100.00
2875;BME280;1445;52.600;13.328;2023-08-08T04:34:52;100328.94;;;12.99;100.00
2875;BME280;1445;52.600;13.328;2023-08-08T04:37:17;100312.63;;;12.98;100.00
2875;BME280;1445;52.600;13.328;2023-08-08T04:39:43;100325.34;;;12.99;100.00
2875;BME280;1445;52.600;13.328;2023-08-08T04:42:08;100322.41;;;13.04;100.00
2875;BME280;1445;52.600;13.328;2023-08-08T04:44:33;100316.53;;;13.05;100.00
2875;BME280;1445;52.600;13.328;2023-08-08T04:46:59;100329.41;;;13.10;100.00
2875;BME280;1445;52.600;13.328;2023-08-08T04:49:24;100316.97;;;13.16;100.00
2875;BME280;1445;52.600;13.328;2023-08-08T04:51:49;100330.16;;;13.19;100.00
2875;BME280;1445;52.600;13.328;2023-08-08T04:54:15;100322.19;;;13.26;100.00
2875;BME280;1445;52.600;13.328;2023-08-08T04:56:40;100323.69;;;13.24;100.00
2875;BME280;1445;52.600;13.328;2023-08-08T04:59:06;100323.19;;;13.30;100.00
2875;BME280;1445;52.600;13.328;2023-08-08T05:01:31;100330.66;;;13.30;100.00
2875;BME280;1445;52.600;13.328;2023-08-08T05:03:56;100312.78;;;13.27;100.00
2875;BME280;1445;52.600;13.328;2023-08-08T05:06:22;100323.50;;;13.29;100.00
2875;BME280;1445;52.600;13.328;2023-08-08T05:08:51;100312.28;;;13.25;100.00
2875;BME280;1445;52.600;13.328;2023-08-08T05:11:16;100319.13;;;13.28;100.00
2875;BME280;1445;52.600;13.328;2023-08-08T05:13:42;100322.19;;;13.26;100.00
2875;BME280;1445;52.600;13.328;2023-08-08T05:16:08;100319.59;;;13.30;100.00
2875;BME280;1445;52.600;13.328;2023-08-08T05:18:33;100317.31;;;13.32;100.00
2875;BME280;1445;52.600;13.328;2023-08-08T05:20:59;100347.25;;;13.39;100.00
2875;BME280;1445;52.600;13.328;2023-08-08T05:23:24;100337.16;;;13.43;100.00
2875;BME280;1445;52.600;13.328;2023-08-08T05:25:50;100299.47;;;13.50;100.00
2875;BME280;1445;52.600;13.328;2023-08-08T05:28:15;100304.50;;;13.57;100.00
2875;BME280;1445;52.600;13.328;2023-08-08T05:30:40;100295.53;;;13.60;100.00
2875;BME280;1445;52.600;13.328;2023-08-08T05:33:06;100307.13;;;13.62;100.00
2875;BME280;1445;52.600;13.328;2023-08-08T05:35:31;100311.28;;;13.68;100.00
2875;BME280;1445;52.600;13.328;2023-08-08T05:37:57;100307.34;;;13.78;100.00
2875;BME280;1445;52.600;13.328;2023-08-08T05:40:22;100302.50;;;13.96;100.00
2875;BME280;1445;52.600;13.328;2023-08-08T05:42:47;100304.91;;;14.06;100.00
2875;BME280;1445;52.600;13.328;2023-08-08T05:45:13;100289.09;;;14.06;100.00
2875;BME280;1445;52.600;13.328;2023-08-08T05:47:38;100292.63;;;14.16;100.00
2875;BME280;1445;52.600;13.328;2023-08-08T05:50:04;100298.84;;;14.13;100.00
2875;BME280;1445;52.600;13.328;2023-08-08T05:52:30;100308.63;;;14.10;100.00
2875;BME280;1445;52.600;13.328;2023-08-08T05:54:56;100290.88;;;14.11;100.00
2875;BME280;1445;52.600;13.328;2023-08-08T05:57:21;100306.78;;;14.14;100.00
2875;BME280;1445;52.600;13.328;2023-08-08T05:59:47;100320.34;;;14.16;100.00
2875;BME280;1445;52.600;13.328;2023-08-08T06:02:13;100297.94;;;14.21;100.00
2875;BME280;1445;52.600;13.328;2023-08-08T06:04:38;100299.25;;;14.23;100.00
2875;BME280;1445;52.600;13.328;2023-08-08T06:07:04;100306.69;;;14.31;100.00
2875;BME280;1445;52.600;13.328;2023-08-08T06:09:30;100304.38;;;14.33;100.00
2875;BME280;1445;52.600;13.328;2023-08-08T06:11:56;100292.53;;;14.54;100.00
2875;BME280;1445;52.600;13.328;2023-08-08T06:14:21;100298.34;;;14.61;100.00
2875;BME280;1445;52.600;13.328;2023-08-08T06:16:47;100285.63;;;14.60;100.00
2875;BME280;1445;52.600;13.328;2023-08-08T06:19:13;100300.44;;;14.64;100.00
2875;BME280;1445;52.600;13.328;2023-08-08T06:21:40;100295.69;;;14.65;100.00
2875;BME280;1445;52.600;13.328;2023-08-08T06:24:05;100283.94;;;14.80;100.00
2875;BME280;1445;52.600;13.328;2023-08-08T06:26:31;100281.19;;;14.80;100.00
2875;BME280;1445;52.600;13.328;2023-08-08T06:28:56;100280.56;;;14.95;100.00
2875;BME280;1445;52.600;13.328;2023-08-08T06:31:21;100294.09;;;15.09;100.00
2875;BME280;1445;52.600;13.328;2023-08-08T06:33:47;100299.69;;;15.21;100.00
2875;BME280;1445;52.600;13.328;2023-08-08T06:36:13;100287.53;;;15.26;100.00
2875;BME280;1445;52.600;13.328;2023-08-08T06:38:39;100285.81;;;15.34;100.00
2875;BME280;1445;52.600;13.328;2023-08-08T06:41:04;100301.06;;;15.15;100.00
2875;BME280;1445;52.600;13.328;2023-08-08T06:43:30;100287.53;;;15.14;100.00
2875;BME280;1445;52.600;13.328;2023-08-08T06:45:59;100291.44;;;15.13;100.00
2875;BME280;1445;52.600;13.328;2023-08-08T06:48:24;100277.91;;;14.99;100.00
2875;BME280;1445;52.600;13.328;2023-08-08T06:50:49;100310.97;;;15.04;100.00
2875;BME280;1445;52.600;13.328;2023-08-08T06:53:15;100275.31;;;14.94;100.00
2875;BME280;1445;52.600;13.328;2023-08-08T06:55:40;100297.41;;;14.90;100.00
2875;BME280;1445;52.600;13.328;2023-08-08T06:58:06;100292.78;;;14.94;100.00
2875;BME280;1445;52.600;13.328;2023-08-08T07:00:31;100299.97;;;14.95;100.00
2875;BME280;1445;52.600;13.328;2023-08-08T07:02:57;100305.19;;;14.97;100.00
2875;BME280;1445;52.600;13.328;2023-08-08T07:05:22;100308.19;;;15.04;100.00
2875;BME280;1445;52.600;13.328;2023-08-08T07:07:49;100304.44;;;15.21;100.00
2875;BME280;1445;52.600;13.328;2023-08-08T07:10:15;100327.81;;;15.20;100.00
2875;BME280;1445;52.600;13.328;2023-08-08T07:12:41;100303.50;;;15.29;100.00
2875;BME280;1445;52.600;13.328;2023-08-08T07:15:07;100291.88;;;15.48;100.00
2875;BME280;1445;52.600;13.328;2023-08-08T07:17:33;100312.00;;;15.57;100.00
2875;BME280;1445;52.600;13.328;2023-08-08T07:19:58;100284.28;;;15.69;100.00
2875;BME280;1445;52.600;13.328;2023-08-08T07:22:24;100285.41;;;15.68;100.00
2875;BME280;1445;52.600;13.328;2023-08-08T07:24:49;100268.63;;;15.77;100.00
2875;BME280;1445;52.600;13.328;2023-08-08T07:27:15;100315.41;;;15.75;100.00
2875;BME280;1445;52.600;13.328;2023-08-08T07:29:40;100264.34;;;15.80;100.00
2875;BME280;1445;52.600;13.328;2023-08-08T07:32:06;100307.88;;;15.75;100.00
2875;BME280;1445;52.600;13.328;2023-08-08T07:34:31;100264.94;;;15.73;100.00
2875;BME280;1445;52.600;13.328;2023-08-08T07:36:58;100269.69;;;15.72;100.00
2875;BME280;1445;52.600;13.328;2023-08-08T07:39:23;100253.13;;;15.76;100.00
2875;BME280;1445;52.600;13.328;2023-08-08T07:41:49;100292.59;;;15.94;100.00
2875;BME280;1445;52.600;13.328;2023-08-08T07:44:14;100266.59;;;16.14;100.00
2875;BME280;1445;52.600;13.328;2023-08-08T07:46:40;100264.66;;;16.15;100.00
2875;BME280;1445;52.600;13.328;2023-08-08T07:49:06;100252.91;;;16.21;100.00
2875;BME280;1445;52.600;13.328;2023-08-08T07:51:31;100261.28;;;16.09;100.00
2875;BME280;1445;52.600;13.328;2023-08-08T07:53:58;100263.81;;;16.14;100.00
2875;BME280;1445;52.600;13.328;2023-08-08T07:56:23;100253.97;;;16.17;100.00
2875;BME280;1445;52.600;13.328;2023-08-08T07:58:49;100263.75;;;16.39;100.00
2875;BME280;1445;52.600;13.328;2023-08-08T08:01:14;100271.78;;;16.28;100.00
2875;BME280;1445;52.600;13.328;2023-08-08T08:03:40;100256.97;;;16.24;100.00
2875;BME280;1445;52.600;13.328;2023-08-08T08:06:05;100260.75;;;16.32;100.00
2875;BME280;1445;52.600;13.328;2023-08-08T08:08:31;100272.56;;;16.41;100.00
2875;BME280;1445;52.600;13.328;2023-08-08T08:10:57;100261.84;;;16.55;100.00
2875;BME280;1445;52.600;13.328;2023-08-08T08:13:22;100245.16;;;16.55;100.00
2875;BME280;1445;52.600;13.328;2023-08-08T08:15:47;100244.84;;;16.85;100.00
2875;BME280;1445;52.600;13.328;2023-08-08T08:18:13;100246.03;;;16.72;100.00
2875;BME280;1445;52.600;13.328;2023-08-08T08:20:39;100243.13;;;16.68;100.00
2875;BME280;1445;52.600;13.328;2023-08-08T08:23:05;100253.56;;;16.71;100.00
2875;BME280;1445;52.600;13.328;2023-08-08T08:25:30;100259.13;;;16.71;100.00
2875;BME280;1445;52.600;13.328;2023-08-08T08:27:57;100265.09;;;16.57;100.00
2875;BME280;1445;52.600;13.328;2023-08-08T08:30:23;100261.81;;;16.67;100.00
2875;BME280;1445;52.600;13.328;2023-08-08T08:32:51;100254.38;;;16.72;100.00
2875;BME280;1445;52.600;13.328;2023-08-08T08:35:17;100250.41;;;16.85;100.00
2875;BME280;1445;52.600;13.328;2023-08-08T08:37:42;100258.09;;;16.76;100.00
2875;BME280;1445;52.600;13.328;2023-08-08T08:40:08;100234.41;;;16.69;100.00
2875;BME280;1445;52.600;13.328;2023-08-08T08:42:34;100233.50;;;16.93;100.00
2875;BME280;1445;52.600;13.328;2023-08-08T08:45:02;100223.69;;;16.84;100.00
2875;BME280;1445;52.600;13.328;2023-08-08T08:47:30;100242.47;;;16.87;100.00
2875;BME280;1445;52.600;13.328;2023-08-08T08:49:57;100235.66;;;16.84;100.00
2875;BME280;1445;52.600;13.328;2023-08-08T08:52:23;100242.03;;;16.85;100.00
2875;BME280;1445;52.600;13.328;2023-08-08T08:54:50;100234.03;;;16.83;100.00
2875;BME280;1445;52.600;13.328;2023-08-08T08:57:16;100231.09;;;17.08;100.00
2875;BME280;1445;52.600;13.328;2023-08-08T08:59:41;100246.38;;;17.14;100.00
2875;BME280;1445;52.600;13.328;2023-08-08T09:02:07;100237.84;;;17.23;100.00
2875;BME280;1445;52.600;13.328;2023-08-08T09:04:33;100255.28;;;17.04;100.00
2875;BME280;1445;52.600;13.328;2023-08-08T09:07:00;100227.84;;;17.06;100.00
2875;BME280;1445;52.600;13.328;2023-08-08T09:09:26;100225.78;;;17.50;100.00
2875;BME280;1445;52.600;13.328;2023-08-08T09:11:53;100210.50;;;17.44;100.00
2875;BME280;1445;52.600;13.328;2023-08-08T09:14:25;100217.97;;;17.56;100.00
2875;BME280;1445;52.600;13.328;2023-08-08T09:16:52;100213.53;;;17.86;100.00
2875;BME280;1445;52.600;13.328;2023-08-08T09:19:18;100235.94;;;17.90;100.00
2875;BME280;1445;52.600;13.328;2023-08-08T09:21:44;100216.19;;;17.99;100.00
2875;BME280;1445;52.600;13.328;2023-08-08T09:24:10;100207.19;;;17.54;100.00
2875;BME280;1445;52.600;13.328;2023-08-08T09:26:35;100206.59;;;17.45;100.00
2875;BME280;1445;52.600;13.328;2023-08-08T09:29:02;100235.16;;;17.26;100.00
2875;BME280;1445;52.600;13.328;2023-08-08T09:31:28;100203.19;;;17.87;100.00
2875;BME280;1445;52.600;13.328;2023-08-08T09:33:57;100185.94;;;17.81;100.00
2875;BME280;1445;52.600;13.328;2023-08-08T09:36:23;100193.31;;;17.74;100.00
2875;BME280;1445;52.600;13.328;2023-08-08T09:38:49;100198.91;;;17.58;100.00
2875;BME280;1445;52.600;13.328;2023-08-08T09:41:14;100188.81;;;17.85;100.00
2875;BME280;1445;52.600;13.328;2023-08-08T09:43:45;100179.63;;;18.43;100.00
2875;BME280;1445;52.600;13.328;2023-08-08T09:46:11;100177.63;;;18.63;100.00
2875;BME280;1445;52.600;13.328;2023-08-08T09:48:38;100177.75;;;18.47;100.00
2875;BME280;1445;52.600;13.328;2023-08-08T09:51:06;100186.34;;;18.19;100.00
2875;BME280;1445;52.600;13.328;2023-08-08T09:53:31;100184.84;;;17.86;100.00
2875;BME280;1445;52.600;13.328;2023-08-08T09:55:57;100200.28;;;17.32;100.00
2875;BME280;1445;52.600;13.328;2023-08-08T09:58:23;100224.19;;;16.17;100.00
2875;BME280;1445;52.600;13.328;2023-08-08T10:00:51;100254.16;;;15.71;100.00
2875;BME280;1445;52.600;13.328;2023-08-08T10:03:18;100264.88;;;15.61;100.00
2875;BME280;1445;52.600;13.328;2023-08-08T10:05:44;100277.97;;;15.60;100.00
2875;BME280;1445;52.600;13.328;2023-08-08T10:08:10;100285.19;;;15.98;100.00
2875;BME280;1445;52.600;13.328;2023-08-08T10:10:37;100279.94;;;16.49;100.00
2875;BME280;1445;52.600;13.328;2023-08-08T10:13:03;100270.66;;;17.13;100.00
2875;BME280;1445;52.600;13.328;2023-08-08T10:15:30;100232.81;;;17.60;100.00
2875;BME280;1445;52.600;13.328;2023-08-08T10:17:56;100211.16;;;17.53;100.00
2875;BME280;1445;52.600;13.328;2023-08-08T10:20:24;100198.91;;;17.58;100.00
2875;BME280;1445;52.600;13.328;2023-08-08T10:22:51;100191.22;;;17.86;100.00
2875;BME280;1445;52.600;13.328;2023-08-08T10:25:28;100182.34;;;18.39;100.00
2875;BME280;1445;52.600;13.328;2023-08-08T10:28:07;100182.22;;;18.51;100.00
2875;BME280;1445;52.600;13.328;2023-08-08T10:30:52;100169.25;;;18.82;100.00
2875;BME280;1445;52.600;13.328;2023-08-08T10:33:23;100166.56;;;19.12;100.00
2875;BME280;1445;52.600;13.328;2023-08-08T10:38:25;100158.50;;;19.57;100.00
2875;BME280;1445;52.600;13.328;2023-08-08T10:40:58;100160.97;;;19.12;100.00
2875;BME280;1445;52.600;13.328;2023-08-08T10:43:28;100208.00;;;16.91;100.00
2875;BME280;1445;52.600;13.328;2023-08-08T10:46:04;100266.38;;;15.21;100.00
2875;BME280;1445;52.600;13.328;2023-08-08T10:48:29;100284.03;;;15.04;100.00
2875;BME280;1445;52.600;13.328;2023-08-08T10:50:57;100298.75;;;15.17;100.00
2875;BME280;1445;52.600;13.328;2023-08-08T10:53:25;100304.56;;;15.24;100.00
2875;BME280;1445;52.600;13.328;2023-08-08T10:56:03;100276.81;;;15.61;100.00
2875;BME280;1445;52.600;13.328;2023-08-08T10:58:36;100250.63;;;16.52;100.00
2875;BME280;1445;52.600;13.328;2023-08-08T11:01:02;100222.00;;;16.95;100.00
2875;BME280;1445;52.600;13.328;2023-08-08T11:03:30;100211.28;;;17.09;100.00
2875;BME280;1445;52.600;13.328;2023-08-08T11:05:56;100190.59;;;17.10;100.00
2875;BME280;1445;52.600;13.328;2023-08-08T11:08:22;100189.78;;;17.26;100.00
2875;BME280;1445;52.600;13.328;2023-08-08T11:10:51;100157.19;;;18.16;100.00
2875;BME280;1445;52.600;13.328;2023-08-08T11:13:17;100160.41;;;18.57;100.00
2875;BME280;1445;52.600;13.328;2023-08-08T11:15:43;100162.09;;;18.42;100.00
2875;BME280;1445;52.600;13.328;2023-08-08T11:18:08;100162.81;;;18.39;100.00
2875;BME280;1445;52.600;13.328;2023-08-08T11:20:35;100147.50;;;18.29;100.00
2875;BME280;1445;52.600;13.328;2023-08-08T11:23:02;100146.97;;;18.43;100.00
2875;BME280;1445;52.600;13.328;2023-08-08T11:25:29;100155.91;;;18.52;100.00
2875;BME280;1445;52.600;13.328;2023-08-08T11:27:56;100159.75;;;18.87;100.00
2875;BME280;1445;52.600;13.328;2023-08-08T11:30:22;100169.81;;;18.91;100.00
2875;BME280;1445;52.600;13.328;2023-08-08T11:32:49;100154.03;;;19.25;100.00
2875;BME280;1445;52.600;13.328;2023-08-08T11:35:22;100182.19;;;19.13;100.00
2875;BME280;1445;52.600;13.328;2023-08-08T11:37:55;100163.16;;;19.22;100.00
2875;BME280;1445;52.600;13.328;2023-08-08T11:40:23;100154.78;;;19.75;100.00
2875;BME280;1445;52.600;13.328;2023-08-08T11:42:50;100157.94;;;19.21;100.00
2875;BME280;1445;52.600;13.328;2023-08-08T11:45:17;100169.69;;;19.07;100.00
2875;BME280;1445;52.600;13.328;2023-08-08T11:47:43;100155.97;;;19.48;100.00
2875;BME280;1445;52.600;13.328;2023-08-08T11:50:10;100144.41;;;19.76;100.00
2875;BME280;1445;52.600;13.328;2023-08-08T11:52:40;100150.34;;;19.71;100.00
2875;BME280;1445;52.600;13.328;2023-08-08T11:55:10;100183.41;;;19.65;100.00
2875;BME280;1445;52.600;13.328;2023-08-08T11:57:39;100159.19;;;19.50;100.00
2875;BME280;1445;52.600;13.328;2023-08-08T12:00:10;100146.81;;;19.51;100.00
2875;BME280;1445;52.600;13.328;2023-08-08T12:02:39;100146.72;;;20.00;100.00
2875;BME280;1445;52.600;13.328;2023-08-08T12:05:06;100150.25;;;19.64;100.00
2875;BME280;1445;52.600;13.328;2023-08-08T12:07:33;100130.28;;;19.95;100.00
2875;BME280;1445;52.600;13.328;2023-08-08T12:10:04;100137.53;;;20.34;100.00
2875;BME280;1445;52.600;13.328;2023-08-08T12:12:31;100128.66;;;20.28;100.00
2875;BME280;1445;52.600;13.328;2023-08-08T12:15:03;100143.19;;;20.37;100.00
2875;BME280;1445;52.600;13.328;2023-08-08T12:17:30;100136.91;;;20.88;100.00
2875;BME280;1445;52.600;13.328;2023-08-08T12:19:59;100148.03;;;20.78;100.00
2875;BME280;1445;52.600;13.328;2023-08-08T12:22:25;100133.91;;;20.67;100.00
2875;BME280;1445;52.600;13.328;2023-08-08T12:24:51;100130.91;;;20.49;100.00
2875;BME280;1445;52.600;13.328;2023-08-08T12:27:16;100130.31;;;20.29;100.00
2875;BME280;1445;52.600;13.328;2023-08-08T12:29:42;100132.63;;;21.02;100.00
2875;BME280;1445;52.600;13.328;2023-08-08T12:32:07;100133.13;;;20.66;100.00
2875;BME280;1445;52.600;13.328;2023-08-08T12:34:34;100121.69;;;20.48;100.00
2875;BME280;1445;52.600;13.328;2023-08-08T12:36:59;100112.13;;;20.90;100.00
2875;BME280;1445;52.600;13.328;2023-08-08T12:39:25;100129.94;;;20.34;100.00
2875;BME280;1445;52.600;13.328;2023-08-08T12:41:50;100149.03;;;20.59;100.00
2875;BME280;1445;52.600;13.328;2023-08-08T12:44:16;100140.66;;;20.59;100.00
2875;BME280;1445;52.600;13.328;2023-08-08T12:46:41;100117.53;;;20.69;100.00
2875;BME280;1445;52.600;13.328;2023-08-08T12:49:07;100131.06;;;20.26;100.00
2875;BME280;1445;52.600;13.328;2023-08-08T12:51:33;100118.47;;;19.79;100.00